sensor_id;sensor_type;location;lat;lon;timestamp;temperature;humidity
4755;DHT22;2391;47.212;7.542;2024-03-08T00:00:51;6.50;96.00
4755;DHT22;2391;47.212;7.542;2024-03-08T00:03:17;6.50;96.10
4755;DHT22;2391;47.212;7.542;2024-03-08T00:05:43;6.40;96.20
4755;DHT22;2391;47.212;7.542;2024-03-08T00:08:09;6.40;96.30
4755;DHT22;2391;47.212;7.542;2024-03-08T00:10:35;6.40;96.30
4755;DHT22;2391;47.212;7.542;2024-03-08T00:13:01;6.40;96.30
4755;DHT22;2391;47.212;7.542;2024-03-08T00:15:29;6.40;96.30
4755;DHT22;2391;47.212;7.542;2024-03-08T00:17:55;6.40;96.40
4755;DHT22;2391;47.212;7.542;2024-03-08T00:20:20;6.40;96.20
4755;DHT22;2391;47.212;7.542;2024-03-08T00:22:46;6.40;96.20
4755;DHT22;2391;47.212;7.542;2024-03-08T00:25:12;6.40;96.20
4755;DHT22;2391;47.212;7.542;2024-03-08T00:27:38;6.30;96.20
4755;DHT22;2391;47.212;7.542;2024-03-08T00:30:05;6.30;96.30
4755;DHT22;2391;47.212;7.542;2024-03-08T00:32:31;6.20;96.40
4755;DHT22;2391;47.212;7.542;2024-03-08T00:34:57;6.20;96.40
4755;DHT22;2391;47.212;7.542;2024-03-08T00:37:23;6.20;96.40
4755;DHT22;2391;47.212;7.542;2024-03-08T00:39:51;6.20;96.60
4755;DHT22;2391;47.212;7.542;2024-03-08T00:42:18;6.20;96.30
4755;DHT22;2391;47.212;7.542;2024-03-08T00:44:44;6.20;96.40
4755;DHT22;2391;47.212;7.542;2024-03-08T00:47:10;6.20;96.10
4755;DHT22;2391;47.212;7.542;2024-03-08T00:49:36;6.30;96.10
4755;DHT22;2391;47.212;7.542;2024-03-08T00:52:06;6.30;96.00
4755;DHT22;2391;47.212;7.542;2024-03-08T00:54:34;6.30;95.90
4755;DHT22;2391;47.212;7.542;2024-03-08T00:57:04;6.30;95.90
4755;DHT22;2391;47.212;7.542;2024-03-08T00:59:30;6.30;96.00
4755;DHT22;2391;47.212;7.542;2024-03-08T01:02:00;6.20;95.90
4755;DHT22;2391;47.212;7.542;2024-03-08T01:04:26;6.20;95.90
4755;DHT22;2391;47.212;7.542;2024-03-08T01:06:55;6.10;95.90
4755;DHT22;2391;47.212;7.542;2024-03-08T01:09:22;6.10;95.90
4755;DHT22;2391;47.212;7.542;2024-03-08T01:11:48;6.00;95.90
4755;DHT22;2391;47.212;7.542;2024-03-08T01:14:16;6.00;95.90
4755;DHT22;2391;47.212;7.542;2024-03-08T01:16:42;6.00;95.90
4755;DHT22;2391;47.212;7.542;2024-03-08T01:19:07;5.90;95.90
4755;DHT22;2391;47.212;7.542;2024-03-08T01:21:34;5.90;96.30
4755;DHT22;2391;47.212;7.542;2024-03-08T01:24:00;5.80;96.00
4755;DHT22;2391;47.212;7.542;2024-03-08T01:26:26;5.80;96.00
4755;DHT22;2391;47.212;7.542;2024-03-08T01:28:51;5.80;96.10
4755;DHT22;2391;47.212;7.542;2024-03-08T01:31:17;5.80;96.10
4755;DHT22;2391;47.212;7.542;2024-03-08T01:33:43;5.70;96.10
4755;DHT22;2391;47.212;7.542;2024-03-08T01:36:09;5.60;96.10
4755;DHT22;2391;47.212;7.542;2024-03-08T01:38:34;5.60;96.10
4755;DHT22;2391;47.212;7.542;2024-03-08T01:41:01;5.60;96.10
4755;DHT22;2391;47.212;7.542;2024-03-08T01:43:28;5.60;96.10
4755;DHT22;2391;47.212;7.542;2024-03-08T01:45:57;5.60;96.20
4755;DHT22;2391;47.212;7.542;2024-03-08T01:48:25;5.60;96.10
4755;DHT22;2391;47.212;7.542;2024-03-08T01:50:52;5.60;96.20
4755;DHT22;2391;47.212;7.542;2024-03-08T01:53:20;5.70;96.10
4755;DHT22;2391;47.212;7.542;2024-03-08T01:55:50;5.70;96.10
4755;DHT22;2391;47.212;7.542;2024-03-08T01:58:17;5.80;96.20
4755;DHT22;2391;47.212;7.542;2024-03-08T02:00:46;5.90;96.20
4755;DHT22;2391;47.212;7.542;2024-03-08T02:03:16;5.90;96.10
4755;DHT22;2391;47.212;7.542;2024-03-08T02:05:42;5.90;96.20
4755;DHT22;2391;47.212;7.542;2024-03-08T02:08:09;6.00;96.50
4755;DHT22;2391;47.212;7.542;2024-03-08T02:10:44;6.00;96.50
4755;DHT22;2391;47.212;7.542;2024-03-08T02:13:11;6.00;96.50
4755;DHT22;2391;47.212;7.542;2024-03-08T02:15:53;6.00;96.60
4755;DHT22;2391;47.212;7.542;2024-03-08T02:18:19;6.00;96.70
4755;DHT22;2391;47.212;7.542;2024-03-08T02:20:47;6.00;96.60
4755;DHT22;2391;47.212;7.542;2024-03-08T02:23:14;6.00;96.60
4755;DHT22;2391;47.212;7.542;2024-03-08T02:25:40;6.00;96.50
4755;DHT22;2391;47.212;7.542;2024-03-08T02:28:11;6.00;96.50
4755;DHT22;2391;47.212;7.542;2024-03-08T02:30:38;6.00;96.60
4755;DHT22;2391;47.212;7.542;2024-03-08T02:33:07;6.10;96.70
4755;DHT22;2391;47.212;7.542;2024-03-08T02:35:35;6.10;96.60
4755;DHT22;2391;47.212;7.542;2024-03-08T02:38:01;6.10;96.60
4755;DHT22;2391;47.212;7.542;2024-03-08T02:40:29;6.10;96.50
4755;DHT22;2391;47.212;7.542;2024-03-08T02:42:55;6.20;96.40
4755;DHT22;2391;47.212;7.542;2024-03-08T02:45:20;6.20;96.40
4755;DHT22;2391;47.212;7.542;2024-03-08T02:47:46;6.10;96.30
4755;DHT22;2391;47.212;7.542;2024-03-08T02:50:14;6.10;96.40
4755;DHT22;2391;47.212;7.542;2024-03-08T02:52:42;6.10;96.40
4755;DHT22;2391;47.212;7.542;2024-03-08T02:55:09;6.20;96.50
4755;DHT22;2391;47.212;7.542;2024-03-08T02:57:36;6.20;96.50
4755;DHT22;2391;47.212;7.542;2024-03-08T03:00:03;6.20;96.40
4755;DHT22;2391;47.212;7.542;2024-03-08T03:02:33;6.20;96.40
4755;DHT22;2391;47.212;7.542;2024-03-08T03:04:59;6.20;96.20
4755;DHT22;2391;47.212;7.542;2024-03-08T03:07:27;6.20;96.20
4755;DHT22;2391;47.212;7.542;2024-03-08T03:09:53;6.20;96.30
4755;DHT22;2391;47.212;7.542;2024-03-08T03:12:18;6.20;96.30
4755;DHT22;2391;47.212;7.542;2024-03-08T03:14:44;6.20;96.20
4755;DHT22;2391;47.212;7.542;2024-03-08T03:17:11;6.20;96.10
4755;DHT22;2391;47.212;7.542;2024-03-08T03:19:36;6.20;96.30
4755;DHT22;2391;47.212;7.542;2024-03-08T03:22:02;6.20;96.30
4755;DHT22;2391;47.212;7.542;2024-03-08T03:24:29;6.20;96.20
4755;DHT22;2391;47.212;7.542;2024-03-08T03:26:55;6.20;96.30
4755;DHT22;2391;47.212;7.542;2024-03-08T03:29:20;6.20;96.20
4755;DHT22;2391;47.212;7.542;2024-03-08T03:31:46;6.10;96.20
4755;DHT22;2391;47.212;7.542;2024-03-08T03:34:12;6.10;96.30
4755;DHT22;2391;47.212;7.542;2024-03-08T03:36:38;6.10;96.30
4755;DHT22;2391;47.212;7.542;2024-03-08T03:39:06;6.20;96.30
4755;DHT22;2391;47.212;7.542;2024-03-08T03:41:34;6.20;96.30
4755;DHT22;2391;47.212;7.542;2024-03-08T03:44:00;6.10;96.30
4755;DHT22;2391;47.212;7.542;2024-03-08T03:46:25;6.20;96.40
4755;DHT22;2391;47.212;7.542;2024-03-08T03:48:54;6.10;96.30
4755;DHT22;2391;47.212;7.542;2024-03-08T03:51:21;6.10;96.40
4755;DHT22;2391;47.212;7.542;2024-03-08T03:53:47;6.10;96.40
4755;DHT22;2391;47.212;7.542;2024-03-08T03:56:13;6.10;96.30
4755;DHT22;2391;47.212;7.542;2024-03-08T03:58:38;6.10;96.50
4755;DHT22;2391;47.212;7.542;2024-03-08T04:01:05;6.10;96.50
4755;DHT22;2391;47.212;7.542;2024-03-08T04:03:31;6.10;96.50
4755;DHT22;2391;47.212;7.542;2024-03-08T04:05:57;6.10;96.60
4755;DHT22;2391;47.212;7.542;2024-03-08T04:08:23;6.10;96.60
4755;DHT22;2391;47.212;7.542;2024-03-08T04:10:51;6.10;96.60
4755;DHT22;2391;47.212;7.542;2024-03-08T04:13:17;6.10;96.60
4755;DHT22;2391;47.212;7.542;2024-03-08T04:15:43;6.20;96.60
4755;DHT22;2391;47.212;7.542;2024-03-08T04:18:09;6.20;96.50
4755;DHT22;2391;47.212;7.542;2024-03-08T04:20:35;6.20;96.40
4755;DHT22;2391;47.212;7.542;2024-03-08T04:23:02;6.20;96.40
4755;DHT22;2391;47.212;7.542;2024-03-08T04:25:28;6.20;96.40
4755;DHT22;2391;47.212;7.542;2024-03-08T04:27:54;6.20;96.40
4755;DHT22;2391;47.212;7.542;2024-03-08T04:30:19;6.20;96.40
4755;DHT22;2391;47.212;7.542;2024-03-08T04:32:46;6.20;96.40
4755;DHT22;2391;47.212;7.542;2024-03-08T04:35:13;6.20;96.40
4755;DHT22;2391;47.212;7.542;2024-03-08T04:37:40;6.20;96.30
4755;DHT22;2391;47.212;7.542;2024-03-08T04:40:07;6.10;96.30
4755;DHT22;2391;47.212;7.542;2024-03-08T04:42:33;6.10;96.50
4755;DHT22;2391;47.212;7.542;2024-03-08T04:44:59;6.10;96.50
4755;DHT22;2391;47.212;7.542;2024-03-08T04:47:25;6.00;96.40
4755;DHT22;2391;47.212;7.542;2024-03-08T04:49:51;6.00;96.40
4755;DHT22;2391;47.212;7.542;2024-03-08T04:52:17;5.90;96.50
4755;DHT22;2391;47.212;7.542;2024-03-08T04:54:43;6.00;96.70
4755;DHT22;2391;47.212;7.542;2024-03-08T04:57:10;6.00;96.60
4755;DHT22;2391;47.212;7.542;2024-03-08T04:59:36;6.00;96.60
4755;DHT22;2391;47.212;7.542;2024-03-08T05:02:02;6.00;96.40
4755;DHT22;2391;47.212;7.542;2024-03-08T05:04:28;6.00;96.60
4755;DHT22;2391;47.212;7.542;2024-03-08T05:06:55;6.10;96.60
4755;DHT22;2391;47.212;7.542;2024-03-08T05:09:21;6.10;96.60
4755;DHT22;2391;47.212;7.542;2024-03-08T05:11:47;6.10;96.50
4755;DHT22;2391;47.212;7.542;2024-03-08T05:14:13;6.10;96.50
4755;DHT22;2391;47.212;7.542;2024-03-08T05:16:42;6.10;96.50
4755;DHT22;2391;47.212;7.542;2024-03-08T05:19:08;6.10;96.80
4755;DHT22;2391;47.212;7.542;2024-03-08T05:21:34;6.10;96.50
4755;DHT22;2391;47.212;7.542;2024-03-08T05:24:00;6.10;96.40
4755;DHT22;2391;47.212;7.542;2024-03-08T05:26:26;6.10;96.50
4755;DHT22;2391;47.212;7.542;2024-03-08T05:28:52;6.10;96.50
4755;DHT22;2391;47.212;7.542;2024-03-08T05:31:20;6.10;96.70
4755;DHT22;2391;47.212;7.542;2024-03-08T05:33:47;6.10;96.60
4755;DHT22;2391;47.212;7.542;2024-03-08T05:36:13;6.10;96.60
4755;DHT22;2391;47.212;7.542;2024-03-08T05:38:41;6.10;96.60
4755;DHT22;2391;47.212;7.542;2024-03-08T05:41:07;6.10;96.60
4755;DHT22;2391;47.212;7.542;2024-03-08T05:43:33;6.10;96.50
4755;DHT22;2391;47.212;7.542;2024-03-08T05:45:59;6.10;96.60
4755;DHT22;2391;47.212;7.542;2024-03-08T05:48:25;6.10;96.60
4755;DHT22;2391;47.212;7.542;2024-03-08T05:50:51;6.00;96.60
4755;DHT22;2391;47.212;7.542;2024-03-08T05:53:17;5.80;96.70
4755;DHT22;2391;47.212;7.542;2024-03-08T05:55:42;5.70;97.00
4755;DHT22;2391;47.212;7.542;2024-03-08T05:58:09;5.60;97.10
4755;DHT22;2391;47.212;7.542;2024-03-08T06:00:36;5.60;97.20
4755;DHT22;2391;47.212;7.542;2024-03-08T06:03:02;5.50;97.30
4755;DHT22;2391;47.212;7.542;2024-03-08T06:05:29;5.40;97.40
4755;DHT22;2391;47.212;7.542;2024-03-08T06:07:54;5.30;97.70
4755;DHT22;2391;47.212;7.542;2024-03-08T06:10:22;5.10;98.10
4755;DHT22;2391;47.212;7.542;2024-03-08T06:12:47;5.00;98.30
4755;DHT22;2391;47.212;7.542;2024-03-08T06:15:15;4.90;98.50
4755;DHT22;2391;47.212;7.542;2024-03-08T06:17:41;5.00;98.60
4755;DHT22;2391;47.212;7.542;2024-03-08T06:20:08;5.00;98.80
4755;DHT22;2391;47.212;7.542;2024-03-08T06:22:39;5.00;98.80
4755;DHT22;2391;47.212;7.542;2024-03-08T06:25:07;5.20;98.90
4755;DHT22;2391;47.212;7.542;2024-03-08T06:27:33;5.40;98.80
4755;DHT22;2391;47.212;7.542;2024-03-08T06:30:00;5.60;98.70
4755;DHT22;2391;47.212;7.542;2024-03-08T06:32:26;5.70;98.40
4755;DHT22;2391;47.212;7.542;2024-03-08T06:34:51;5.80;98.30
4755;DHT22;2391;47.212;7.542;2024-03-08T06:37:17;5.80;98.20
4755;DHT22;2391;47.212;7.542;2024-03-08T06:39:48;6.00;98.00
4755;DHT22;2391;47.212;7.542;2024-03-08T06:42:14;6.00;97.80
4755;DHT22;2391;47.212;7.542;2024-03-08T06:44:39;6.00;97.70
4755;DHT22;2391;47.212;7.542;2024-03-08T06:47:07;6.00;97.60
4755;DHT22;2391;47.212;7.542;2024-03-08T06:49:33;6.10;97.70
4755;DHT22;2391;47.212;7.542;2024-03-08T06:52:02;6.10;97.50
4755;DHT22;2391;47.212;7.542;2024-03-08T06:54:29;6.10;97.50
4755;DHT22;2391;47.212;7.542;2024-03-08T06:56:55;6.10;97.50
4755;DHT22;2391;47.212;7.542;2024-03-08T06:59:21;6.10;97.60
4755;DHT22;2391;47.212;7.542;2024-03-08T07:01:47;6.20;97.50
4755;DHT22;2391;47.212;7.542;2024-03-08T07:04:13;6.10;97.60
4755;DHT22;2391;47.212;7.542;2024-03-08T07:06:39;6.00;97.70
4755;DHT22;2391;47.212;7.542;2024-03-08T07:09:06;5.90;97.90
4755;DHT22;2391;47.212;7.542;2024-03-08T07:11:32;6.00;97.90
4755;DHT22;2391;47.212;7.542;2024-03-08T07:13:58;6.00;97.90
4755;DHT22;2391;47.212;7.542;2024-03-08T07:16:24;6.00;98.10
4755;DHT22;2391;47.212;7.542;2024-03-08T07:18:51;6.00;98.20
4755;DHT22;2391;47.212;7.542;2024-03-08T07:21:18;6.00;98.10
4755;DHT22;2391;47.212;7.542;2024-03-08T07:23:45;6.10;98.20
4755;DHT22;2391;47.212;7.542;2024-03-08T07:26:22;6.00;98.40
4755;DHT22;2391;47.212;7.542;2024-03-08T07:28:48;5.80;98.60
4755;DHT22;2391;47.212;7.542;2024-03-08T07:31:14;5.80;98.60
4755;DHT22;2391;47.212;7.542;2024-03-08T07:33:42;5.80;98.70
4755;DHT22;2391;47.212;7.542;2024-03-08T07:36:08;5.80;98.70
4755;DHT22;2391;47.212;7.542;2024-03-08T07:38:34;5.80;98.80
4755;DHT22;2391;47.212;7.542;2024-03-08T07:41:00;5.80;98.80
4755;DHT22;2391;47.212;7.542;2024-03-08T07:43:26;5.80;99.00
4755;DHT22;2391;47.212;7.542;2024-03-08T07:45:53;5.80;98.90
4755;DHT22;2391;47.212;7.542;2024-03-08T07:48:20;5.70;98.70
4755;DHT22;2391;47.212;7.542;2024-03-08T07:50:46;5.70;99.20
4755;DHT22;2391;47.212;7.542;2024-03-08T07:53:12;5.60;99.10
4755;DHT22;2391;47.212;7.542;2024-03-08T07:55:38;5.60;99.20
4755;DHT22;2391;47.212;7.542;2024-03-08T07:58:06;5.60;99.30
4755;DHT22;2391;47.212;7.542;2024-03-08T08:00:32;5.50;99.30
4755;DHT22;2391;47.212;7.542;2024-03-08T08:02:58;5.40;99.50
4755;DHT22;2391;47.212;7.542;2024-03-08T08:05:24;5.40;99.60
4755;DHT22;2391;47.212;7.542;2024-03-08T08:07:50;5.50;99.80
4755;DHT22;2391;47.212;7.542;2024-03-08T08:10:18;5.60;99.60
4755;DHT22;2391;47.212;7.542;2024-03-08T08:12:46;5.60;99.50
4755;DHT22;2391;47.212;7.542;2024-03-08T08:15:11;5.60;99.50
4755;DHT22;2391;47.212;7.542;2024-03-08T08:17:38;5.60;99.40
4755;DHT22;2391;47.212;7.542;2024-03-08T08:20:04;5.50;99.40
4755;DHT22;2391;47.212;7.542;2024-03-08T08:22:31;5.60;99.10
4755;DHT22;2391;47.212;7.542;2024-03-08T08:24:57;5.60;99.20
4755;DHT22;2391;47.212;7.542;2024-03-08T08:27:23;5.60;99.30
4755;DHT22;2391;47.212;7.542;2024-03-08T08:29:48;5.60;99.60
4755;DHT22;2391;47.212;7.542;2024-03-08T08:32:15;5.60;99.20
4755;DHT22;2391;47.212;7.542;2024-03-08T08:34:41;5.60;99.40
4755;DHT22;2391;47.212;7.542;2024-03-08T08:37:09;5.60;99.40
4755;DHT22;2391;47.212;7.542;2024-03-08T08:39:35;5.70;99.40
4755;DHT22;2391;47.212;7.542;2024-03-08T08:42:01;5.80;99.40
4755;DHT22;2391;47.212;7.542;2024-03-08T08:44:28;5.70;99.40
4755;DHT22;2391;47.212;7.542;2024-03-08T08:46:54;5.60;99.60
4755;DHT22;2391;47.212;7.542;2024-03-08T08:49:20;5.60;99.40
4755;DHT22;2391;47.212;7.542;2024-03-08T08:51:49;5.70;99.50
4755;DHT22;2391;47.212;7.542;2024-03-08T08:54:16;5.70;99.50
4755;DHT22;2391;47.212;7.542;2024-03-08T08:56:43;5.70;99.30
4755;DHT22;2391;47.212;7.542;2024-03-08T08:59:14;5.70;99.40
4755;DHT22;2391;47.212;7.542;2024-03-08T09:01:40;5.60;99.40
4755;DHT22;2391;47.212;7.542;2024-03-08T09:04:06;5.60;99.60
4755;DHT22;2391;47.212;7.542;2024-03-08T09:06:33;5.50;99.60
4755;DHT22;2391;47.212;7.542;2024-03-08T09:08:59;5.40;99.60
4755;DHT22;2391;47.212;7.542;2024-03-08T09:11:25;5.40;99.70
4755;DHT22;2391;47.212;7.542;2024-03-08T09:13:51;5.30;99.80
4755;DHT22;2391;47.212;7.542;2024-03-08T09:16:17;5.30;99.80
4755;DHT22;2391;47.212;7.542;2024-03-08T09:18:43;5.30;99.90
4755;DHT22;2391;47.212;7.542;2024-03-08T09:21:09;5.30;99.90
4755;DHT22;2391;47.212;7.542;2024-03-08T09:23:36;5.40;99.90
4755;DHT22;2391;47.212;7.542;2024-03-08T09:26:02;5.50;99.90
4755;DHT22;2391;47.212;7.542;2024-03-08T09:28:30;5.50;99.90
4755;DHT22;2391;47.212;7.542;2024-03-08T09:30:55;5.60;99.90
4755;DHT22;2391;47.212;7.542;2024-03-08T09:33:21;5.60;99.80
4755;DHT22;2391;47.212;7.542;2024-03-08T09:35:47;5.60;99.60
4755;DHT22;2391;47.212;7.542;2024-03-08T09:38:14;5.70;99.60
4755;DHT22;2391;47.212;7.542;2024-03-08T09:40:42;5.70;99.70
4755;DHT22;2391;47.212;7.542;2024-03-08T09:43:09;5.70;99.50
4755;DHT22;2391;47.212;7.542;2024-03-08T09:45:37;5.70;99.50
4755;DHT22;2391;47.212;7.542;2024-03-08T09:48:10;5.70;99.70
4755;DHT22;2391;47.212;7.542;2024-03-08T09:50:35;5.70;99.60
4755;DHT22;2391;47.212;7.542;2024-03-08T09:53:01;5.60;99.50
4755;DHT22;2391;47.212;7.542;2024-03-08T09:55:29;5.60;99.90
4755;DHT22;2391;47.212;7.542;2024-03-08T09:57:58;5.60;99.80
4755;DHT22;2391;47.212;7.542;2024-03-08T10:00:38;5.50;99.90
4755;DHT22;2391;47.212;7.542;2024-03-08T10:03:04;5.60;99.90
4755;DHT22;2391;47.212;7.542;2024-03-08T10:05:31;5.80;99.90
4755;DHT22;2391;47.212;7.542;2024-03-08T10:08:02;5.90;99.50
4755;DHT22;2391;47.212;7.542;2024-03-08T10:10:30;5.90;99.70
4755;DHT22;2391;47.212;7.542;2024-03-08T10:12:56;6.00;99.60
4755;DHT22;2391;47.212;7.542;2024-03-08T10:15:22;6.00;99.50
4755;DHT22;2391;47.212;7.542;2024-03-08T10:17:50;6.00;99.30
4755;DHT22;2391;47.212;7.542;2024-03-08T10:20:17;6.00;99.20
4755;DHT22;2391;47.212;7.542;2024-03-08T10:22:43;6.10;99.00
4755;DHT22;2391;47.212;7.542;2024-03-08T10:25:11;6.10;98.70
4755;DHT22;2391;47.212;7.542;2024-03-08T10:27:40;6.20;98.80
4755;DHT22;2391;47.212;7.542;2024-03-08T10:30:14;6.20;98.70
4755;DHT22;2391;47.212;7.542;2024-03-08T10:32:41;6.30;98.80
4755;DHT22;2391;47.212;7.542;2024-03-08T10:35:08;6.30;98.70
4755;DHT22;2391;47.212;7.542;2024-03-08T10:37:45;6.20;98.70
4755;DHT22;2391;47.212;7.542;2024-03-08T10:40:04;6.10;99.10
4755;DHT22;2391;47.212;7.542;2024-03-08T10:42:33;6.10;98.90
4755;DHT22;2391;47.212;7.542;2024-03-08T10:45:15;6.00;99.40
4755;DHT22;2391;47.212;7.542;2024-03-08T10:47:41;6.00;99.60
4755;DHT22;2391;47.212;7.542;2024-03-08T10:50:20;5.90;99.90
4755;DHT22;2391;47.212;7.542;2024-03-08T10:52:44;5.90;99.70
4755;DHT22;2391;47.212;7.542;2024-03-08T10:55:10;6.00;99.50
4755;DHT22;2391;47.212;7.542;2024-03-08T10:57:40;6.00;99.80
4755;DHT22;2391;47.212;7.542;2024-03-08T11:00:07;6.00;99.90
4755;DHT22;2391;47.212;7.542;2024-03-08T11:02:35;6.00;99.70
4755;DHT22;2391;47.212;7.542;2024-03-08T11:05:03;6.10;99.70
4755;DHT22;2391;47.212;7.542;2024-03-08T11:07:42;6.10;99.50
4755;DHT22;2391;47.212;7.542;2024-03-08T11:10:19;6.10;99.70
4755;DHT22;2391;47.212;7.542;2024-03-08T11:12:46;6.10;99.90
4755;DHT22;2391;47.212;7.542;2024-03-08T11:15:13;6.20;99.90
4755;DHT22;2391;47.212;7.542;2024-03-08T11:17:45;6.40;99.90
4755;DHT22;2391;47.212;7.542;2024-03-08T11:20:13;6.50;99.50
4755;DHT22;2391;47.212;7.542;2024-03-08T11:22:56;6.50;99.20
4755;DHT22;2391;47.212;7.542;2024-03-08T11:25:34;6.60;99.40
4755;DHT22;2391;47.212;7.542;2024-03-08T11:28:19;6.70;99.40
4755;DHT22;2391;47.212;7.542;2024-03-08T11:30:47;6.70;99.20
4755;DHT22;2391;47.212;7.542;2024-03-08T11:33:15;6.80;99.10
4755;DHT22;2391;47.212;7.542;2024-03-08T11:35:42;6.90;99.00
4755;DHT22;2391;47.212;7.542;2024-03-08T11:38:12;7.00;98.70
4755;DHT22;2391;47.212;7.542;2024-03-08T11:40:39;7.10;98.70
4755;DHT22;2391;47.212;7.542;2024-03-08T11:43:05;7.10;98.50
4755;DHT22;2391;47.212;7.542;2024-03-08T11:45:50;7.20;98.50
4755;DHT22;2391;47.212;7.542;2024-03-08T11:48:18;7.30;98.20
4755;DHT22;2391;47.212;7.542;2024-03-08T11:50:44;7.40;98.50
4755;DHT22;2391;47.212;7.542;2024-03-08T11:53:10;7.40;98.30
4755;DHT22;2391;47.212;7.542;2024-03-08T11:55:36;7.40;98.40
4755;DHT22;2391;47.212;7.542;2024-03-08T11:58:03;7.30;98.30
4755;DHT22;2391;47.212;7.542;2024-03-08T12:00:30;7.30;98.10
4755;DHT22;2391;47.212;7.542;2024-03-08T12:03:08;7.30;98.30
4755;DHT22;2391;47.212;7.542;2024-03-08T12:05:36;7.30;98.10
4755;DHT22;2391;47.212;7.542;2024-03-08T12:08:02;7.20;98.20
4755;DHT22;2391;47.212;7.542;2024-03-08T12:10:30;7.20;98.20
4755;DHT22;2391;47.212;7.542;2024-03-08T12:12:58;7.30;98.30
4755;DHT22;2391;47.212;7.542;2024-03-08T12:15:29;7.30;98.40
4755;DHT22;2391;47.212;7.542;2024-03-08T12:17:56;7.30;98.20
4755;DHT22;2391;47.212;7.542;2024-03-08T12:20:23;7.30;98.40
4755;DHT22;2391;47.212;7.542;2024-03-08T12:22:55;7.30;98.40
4755;DHT22;2391;47.212;7.542;2024-03-08T12:25:31;7.40;98.30
4755;DHT22;2391;47.212;7.542;2024-03-08T12:28:08;7.50;98.40
4755;DHT22;2391;47.212;7.542;2024-03-08T12:30:49;7.50;98.00
4755;DHT22;2391;47.212;7.542;2024-03-08T12:33:17;7.40;97.80
4755;DHT22;2391;47.212;7.542;2024-03-08T12:35:55;7.40;98.00
4755;DHT22;2391;47.212;7.542;2024-03-08T12:38:24;7.40;98.30
4755;DHT22;2391;47.212;7.542;2024-03-08T12:40:56;7.40;98.10
4755;DHT22;2391;47.212;7.542;2024-03-08T12:43:22;7.30;98.20
4755;DHT22;2391;47.212;7.542;2024-03-08T12:45:48;7.30;98.10
4755;DHT22;2391;47.212;7.542;2024-03-08T12:48:14;7.30;98.20
4755;DHT22;2391;47.212;7.542;2024-03-08T12:50:42;7.30;98.20
4755;DHT22;2391;47.212;7.542;2024-03-08T12:53:10;7.40;98.20
4755;DHT22;2391;47.212;7.542;2024-03-08T12:55:36;7.40;98.00
4755;DHT22;2391;47.212;7.542;2024-03-08T12:58:02;7.40;98.00
4755;DHT22;2391;47.212;7.542;2024-03-08T13:00:28;7.40;98.00
4755;DHT22;2391;47.212;7.542;2024-03-08T13:02:55;7.30;97.90
4755;DHT22;2391;47.212;7.542;2024-03-08T13:05:21;7.30;98.40
4755;DHT22;2391;47.212;7.542;2024-03-08T13:07:47;7.30;98.30
4755;DHT22;2391;47.212;7.542;2024-03-08T13:10:13;7.40;98.20
4755;DHT22;2391;47.212;7.542;2024-03-08T13:12:43;7.50;98.40
4755;DHT22;2391;47.212;7.542;2024-03-08T13:15:10;7.50;98.00
4755;DHT22;2391;47.212;7.542;2024-03-08T13:17:44;7.50;97.90
4755;DHT22;2391;47.212;7.542;2024-03-08T13:20:12;7.40;98.10
4755;DHT22;2391;47.212;7.542;2024-03-08T13:22:39;7.40;98.10
4755;DHT22;2391;47.212;7.542;2024-03-08T13:25:05;7.30;98.10
4755;DHT22;2391;47.212;7.542;2024-03-08T13:27:31;7.40;98.20
4755;DHT22;2391;47.212;7.542;2024-03-08T13:29:57;7.40;98.40
4755;DHT22;2391;47.212;7.542;2024-03-08T13:32:23;7.50;98.00
4755;DHT22;2391;47.212;7.542;2024-03-08T13:34:50;7.60;98.00
4755;DHT22;2391;47.212;7.542;2024-03-08T13:37:17;7.60;97.90
4755;DHT22;2391;47.212;7.542;2024-03-08T13:39:43;7.70;97.90
4755;DHT22;2391;47.212;7.542;2024-03-08T13:42:11;7.70;98.00
4755;DHT22;2391;47.212;7.542;2024-03-08T13:44:48;7.80;98.00
4755;DHT22;2391;47.212;7.542;2024-03-08T13:47:18;7.90;97.80
4755;DHT22;2391;47.212;7.542;2024-03-08T13:49:45;7.90;97.70
4755;DHT22;2391;47.212;7.542;2024-03-08T13:52:11;7.90;97.50
4755;DHT22;2391;47.212;7.542;2024-03-08T13:54:40;7.80;97.50
4755;DHT22;2391;47.212;7.542;2024-03-08T13:57:06;7.80;97.80
4755;DHT22;2391;47.212;7.542;2024-03-08T13:59:35;7.80;98.00
4755;DHT22;2391;47.212;7.542;2024-03-08T14:02:02;7.80;98.00
4755;DHT22;2391;47.212;7.542;2024-03-08T14:04:28;8.00;98.00
4755;DHT22;2391;47.212;7.542;2024-03-08T14:06:55;7.90;97.80
4755;DHT22;2391;47.212;7.542;2024-03-08T14:09:23;7.90;98.00
4755;DHT22;2391;47.212;7.542;2024-03-08T14:11:51;7.90;97.80
4755;DHT22;2391;47.212;7.542;2024-03-08T14:14:24;7.90;97.80
4755;DHT22;2391;47.212;7.542;2024-03-08T14:16:51;8.00;97.90
4755;DHT22;2391;47.212;7.542;2024-03-08T14:19:21;8.00;97.70
4755;DHT22;2391;47.212;7.542;2024-03-08T14:21:47;8.10;98.00
4755;DHT22;2391;47.212;7.542;2024-03-08T14:24:17;8.10;98.00
4755;DHT22;2391;47.212;7.542;2024-03-08T14:26:44;8.20;97.90
4755;DHT22;2391;47.212;7.542;2024-03-08T14:29:10;8.20;97.90
4755;DHT22;2391;47.212;7.542;2024-03-08T14:31:36;8.20;97.90
4755;DHT22;2391;47.212;7.542;2024-03-08T14:34:03;8.30;97.90
4755;DHT22;2391;47.212;7.542;2024-03-08T14:36:29;8.40;97.90
4755;DHT22;2391;47.212;7.542;2024-03-08T14:38:56;8.40;97.80
4755;DHT22;2391;47.212;7.542;2024-03-08T14:41:22;8.50;97.80
4755;DHT22;2391;47.212;7.542;2024-03-08T14:43:48;8.60;97.80
4755;DHT22;2391;47.212;7.542;2024-03-08T14:46:15;8.60;97.70
4755;DHT22;2391;47.212;7.542;2024-03-08T14:48:47;8.70;97.90
4755;DHT22;2391;47.212;7.542;2024-03-08T14:51:13;8.70;97.60
4755;DHT22;2391;47.212;7.542;2024-03-08T14:53:43;8.70;97.80
4755;DHT22;2391;47.212;7.542;2024-03-08T14:56:11;8.70;97.80
4755;DHT22;2391;47.212;7.542;2024-03-08T14:58:43;8.70;97.70
4755;DHT22;2391;47.212;7.542;2024-03-08T15:01:12;8.70;97.60
4755;DHT22;2391;47.212;7.542;2024-03-08T15:03:41;8.70;97.60
4755;DHT22;2391;47.212;7.542;2024-03-08T15:06:08;8.70;97.80
4755;DHT22;2391;47.212;7.542;2024-03-08T15:08:36;8.70;97.60
4755;DHT22;2391;47.212;7.542;2024-03-08T15:11:02;8.70;97.50
4755;DHT22;2391;47.212;7.542;2024-03-08T15:13:28;8.70;97.50
4755;DHT22;2391;47.212;7.542;2024-03-08T15:15:56;8.70;97.50
4755;DHT22;2391;47.212;7.542;2024-03-08T15:18:23;8.70;97.60
4755;DHT22;2391;47.212;7.542;2024-03-08T15:20:54;8.70;97.70
4755;DHT22;2391;47.212;7.542;2024-03-08T15:23:21;8.70;97.80
4755;DHT22;2391;47.212;7.542;2024-03-08T15:25:48;8.70;97.90
4755;DHT22;2391;47.212;7.542;2024-03-08T15:28:16;8.80;98.00
4755;DHT22;2391;47.212;7.542;2024-03-08T15:30:45;8.90;98.00
4755;DHT22;2391;47.212;7.542;2024-03-08T15:33:13;8.90;98.20
4755;DHT22;2391;47.212;7.542;2024-03-08T15:35:41;9.00;97.90
4755;DHT22;2391;47.212;7.542;2024-03-08T15:38:09;9.10;97.80
4755;DHT22;2391;47.212;7.542;2024-03-08T15:40:35;9.10;97.70
4755;DHT22;2391;47.212;7.542;2024-03-08T15:43:01;9.10;97.70
4755;DHT22;2391;47.212;7.542;2024-03-08T15:49:20;9.10;97.80
4755;DHT22;2391;47.212;7.542;2024-03-08T15:51:51;9.30;97.90
4755;DHT22;2391;47.212;7.542;2024-03-08T15:54:17;9.40;97.70
4755;DHT22;2391;47.212;7.542;2024-03-08T15:56:44;9.50;97.70
4755;DHT22;2391;47.212;7.542;2024-03-08T15:59:11;9.50;97.70
4755;DHT22;2391;47.212;7.542;2024-03-08T16:01:37;9.50;97.70
4755;DHT22;2391;47.212;7.542;2024-03-08T16:04:03;9.50;97.70
4755;DHT22;2391;47.212;7.542;2024-03-08T16:06:30;9.60;97.70
4755;DHT22;2391;47.212;7.542;2024-03-08T16:08:56;9.50;97.70
4755;DHT22;2391;47.212;7.542;2024-03-08T16:11:21;9.60;97.80
4755;DHT22;2391;47.212;7.542;2024-03-08T16:13:48;9.60;97.80
4755;DHT22;2391;47.212;7.542;2024-03-08T16:16:15;9.50;97.80
4755;DHT22;2391;47.212;7.542;2024-03-08T16:18:41;9.40;97.90
4755;DHT22;2391;47.212;7.542;2024-03-08T16:21:07;9.50;98.00